Time,TemperatureF,DewpointF,PressureIn,WindDirection,WindDirectionDegrees,WindSpeedMPH,WindSpeedGustMPH,Humidity,HourlyPrecipIn,Conditions,Clouds,dailyrainin,SoftwareType,DateUTC
2013-06-26 00:01:00,56.1,54.1,29.86,North,-999,0.0,0.0,93,0.00,,,0.00,pywws,2013-06-26 07:01:00,
2013-06-26 00:06:00,56.1,54.1,29.86,North,-999,0.0,0.0,93,0.00,,,0.00,pywws,2013-06-26 07:06:00,
2013-06-26 00:11:00,56.1,54.1,29.85,North,-999,0.0,0.0,93,0.00,,,0.00,pywws,2013-06-26 07:11:00,
2013-06-26 00:16:00,56.1,54.1,29.85,North,-999,0.0,0.0,93,0.00,,,0.00,pywws,2013-06-26 07:16:00,
2013-06-26 00:21:00,55.9,53.9,29.85,North,-999,0.0,0.0,93,0.00,,,0.00,pywws,2013-06-26 07:21:00,
2013-06-26 00:26:00,55.9,53.9,29.85,North,-999,0.0,0.0,93,0.00,,,0.00,pywws,2013-06-26 07:26:00,
2013-06-26 00:31:00,55.6,53.6,29.85,North,-999,0.0,0.0,93,0.00,,,0.00,pywws,2013-06-26 07:31:00,
2013-06-26 00:36:00,55.4,53.1,29.85,North,-999,0.0,0.0,92,0.00,,,0.00,pywws,2013-06-26 07:36:00,
2013-06-26 00:41:00,55.6,53.3,29.85,North,-999,0.0,0.0,92,0.00,,,0.00,pywws,2013-06-26 07:41:00,
2013-06-26 00:46:00,55.2,52.9,29.85,North,-999,0.0,0.0,92,0.00,,,0.00,pywws,2013-06-26 07:46:00,
2013-06-26 00:51:00,55.0,52.8,29.85,North,-999,0.0,0.0,92,0.00,,,0.00,pywws,2013-06-26 07:51:00,
2013-06-26 00:56:00,55.2,52.9,29.85,North,-999,0.0,0.0,92,0.00,,,0.00,pywws,2013-06-26 07:56:00,
2013-06-26 01:01:00,55.2,52.9,29.85,North,-999,0.0,0.0,92,0.00,,,0.00,pywws,2013-06-26 08:01:00,
2013-06-26 01:06:00,55.2,52.9,29.85,North,-999,0.0,0.0,92,0.00,,,0.00,pywws,2013-06-26 08:06:00,
2013-06-26 01:11:00,55.0,52.8,29.85,North,-999,0.0,0.0,92,0.00,,,0.00,pywws,2013-06-26 08:11:00,
2013-06-26 01:16:00,54.9,52.6,29.85,North,-999,0.0,0.0,92,0.00,,,0.00,pywws,2013-06-26 08:16:00,
2013-06-26 01:21:00,54.9,52.6,29.85,North,-999,0.0,0.0,92,0.00,,,0.00,pywws,2013-06-26 08:21:00,
2013-06-26 01:26:00,54.9,52.6,29.85,North,-999,0.0,0.0,92,0.00,,,0.00,pywws,2013-06-26 08:26:00,
2013-06-26 01:31:00,54.9,52.6,29.85,North,-999,0.0,0.0,92,0.00,,,0.00,pywws,2013-06-26 08:31:00,
2013-06-26 01:36:00,55.0,52.8,29.85,North,-999,0.0,0.0,92,0.00,,,0.00,pywws,2013-06-26 08:36:00,
2013-06-26 01:41:00,54.9,52.6,29.85,North,-999,0.0,0.0,92,0.00,,,0.00,pywws,2013-06-26 08:41:00,
2013-06-26 01:46:00,55.0,52.8,29.85,North,-999,0.0,0.0,92,0.00,,,0.00,pywws,2013-06-26 08:46:00,
2013-06-26 01:51:00,54.9,52.6,29.85,North,-999,0.0,0.0,92,0.00,,,0.00,pywws,2013-06-26 08:51:00,
2013-06-26 02:01:00,55.2,52.9,29.85,North,-999,0.0,0.0,92,0.00,,,0.00,pywws,2013-06-26 09:01:00,
2013-06-26 02:06:00,55.0,52.8,29.85,North,-999,0.0,0.0,92,0.00,,,0.00,pywws,2013-06-26 09:06:00,
2013-06-26 02:11:00,55.2,53.2,29.85,North,-999,0.0,0.0,93,0.00,,,0.00,pywws,2013-06-26 09:11:00,
2013-06-26 02:16:00,55.0,53.1,29.85,North,-999,0.0,0.0,93,0.00,,,0.00,pywws,2013-06-26 09:16:00,
2013-06-26 02:21:00,55.2,53.2,29.85,North,-999,0.0,0.0,93,0.00,,,0.00,pywws,2013-06-26 09:21:00,
2013-06-26 02:26:00,55.4,53.1,29.86,North,-999,0.0,0.0,92,0.00,,,0.00,pywws,2013-06-26 09:26:00,
2013-06-26 02:31:00,55.4,53.4,29.86,North,-999,0.0,0.0,93,0.00,,,0.00,pywws,2013-06-26 09:31:00,
2013-06-26 02:36:00,55.4,53.4,29.86,North,-999,0.0,0.0,93,0.00,,,0.00,pywws,2013-06-26 09:36:00,
2013-06-26 02:41:00,55.4,53.4,29.86,North,-999,0.0,0.0,93,0.01,,,0.01,pywws,2013-06-26 09:41:00,
2013-06-26 02:46:00,55.6,53.6,29.86,North,-999,0.0,0.0,93,0.01,,,0.01,pywws,2013-06-26 09:46:00,
2013-06-26 02:51:00,55.4,53.4,29.86,North,-999,0.0,0.0,93,0.01,,,0.01,pywws,2013-06-26 09:51:00,
2013-06-26 03:01:00,55.6,53.6,29.86,North,-999,0.0,0.0,93,0.01,,,0.01,pywws,2013-06-26 10:01:00,
2013-06-26 03:06:00,55.6,53.6,29.85,North,-999,0.0,0.0,93,0.01,,,0.01,pywws,2013-06-26 10:06:00,
2013-06-26 03:11:00,55.6,53.6,29.86,North,-999,0.0,0.0,93,0.01,,,0.01,pywws,2013-06-26 10:11:00,
2013-06-26 03:16:00,55.8,53.8,29.86,North,-999,0.0,0.0,93,0.01,,,0.01,pywws,2013-06-26 10:16:00,
2013-06-26 03:21:00,55.8,53.8,29.86,North,-999,0.0,0.0,93,0.01,,,0.01,pywws,2013-06-26 10:21:00,
2013-06-26 03:26:00,55.6,53.6,29.87,North,-999,0.0,0.0,93,0.01,,,0.01,pywws,2013-06-26 10:26:00,
2013-06-26 03:31:00,55.6,53.6,29.87,North,-999,0.0,0.0,93,0.01,,,0.01,pywws,2013-06-26 10:31:00,
2013-06-26 03:36:00,55.6,53.6,29.87,North,-999,0.0,0.0,93,0.01,,,0.01,pywws,2013-06-26 10:36:00,
2013-06-26 03:41:00,55.8,53.8,29.86,North,-999,0.0,0.0,93,0.00,,,0.01,pywws,2013-06-26 10:41:00,
2013-06-26 03:46:00,55.8,53.8,29.86,North,-999,0.0,0.0,93,0.00,,,0.01,pywws,2013-06-26 10:46:00,
2013-06-26 03:51:00,55.6,53.6,29.86,North,-999,0.0,0.0,93,0.00,,,0.01,pywws,2013-06-26 10:51:00,
2013-06-26 03:56:00,55.8,53.8,29.87,North,-999,0.0,0.0,93,0.00,,,0.01,pywws,2013-06-26 10:56:00,
2013-06-26 04:01:00,55.8,53.8,29.87,North,-999,0.0,0.0,93,0.00,,,0.01,pywws,2013-06-26 11:01:00,
2013-06-26 04:06:00,55.8,53.8,29.87,North,-999,0.0,0.0,93,0.00,,,0.01,pywws,2013-06-26 11:06:00,
2013-06-26 04:11:00,55.9,53.9,29.87,North,-999,0.0,0.0,93,0.00,,,0.01,pywws,2013-06-26 11:11:00,
2013-06-26 04:16:00,55.8,53.8,29.86,North,-999,0.0,0.0,93,0.00,,,0.01,pywws,2013-06-26 11:16:00,
2013-06-26 04:21:00,55.8,53.8,29.86,North,-999,0.0,0.0,93,0.00,,,0.01,pywws,2013-06-26 11:21:00,
2013-06-26 04:26:00,55.8,53.8,29.86,North,-999,0.0,0.0,93,0.00,,,0.01,pywws,2013-06-26 11:26:00,
2013-06-26 04:31:00,55.6,53.6,29.86,North,-999,0.0,0.0,93,0.00,,,0.01,pywws,2013-06-26 11:31:00,
2013-06-26 04:36:00,55.4,53.4,29.87,North,-999,0.0,0.0,93,0.00,,,0.01,pywws,2013-06-26 11:36:00,
2013-06-26 04:41:00,55.6,53.6,29.87,North,-999,0.0,0.0,93,0.00,,,0.01,pywws,2013-06-26 11:41:00,
2013-06-26 04:46:00,55.6,53.6,29.87,North,-999,0.0,0.0,93,0.00,,,0.01,pywws,2013-06-26 11:46:00,
2013-06-26 04:51:00,55.6,53.6,29.87,North,-999,0.0,0.0,93,0.00,,,0.01,pywws,2013-06-26 11:51:00,
2013-06-26 04:56:00,55.6,53.6,29.87,North,-999,0.0,0.0,93,0.00,,,0.01,pywws,2013-06-26 11:56:00,
2013-06-26 05:01:00,55.8,53.8,29.87,North,-999,0.0,0.0,93,0.00,,,0.01,pywws,2013-06-26 12:01:00,
2013-06-26 05:06:00,55.8,53.8,29.86,North,-999,0.0,0.0,93,0.00,,,0.01,pywws,2013-06-26 12:06:00,
2013-06-26 05:11:00,55.8,53.8,29.86,North,-999,0.0,0.0,93,0.00,,,0.01,pywws,2013-06-26 12:11:00,
2013-06-26 05:16:00,55.8,53.8,29.87,North,-999,0.0,0.0,93,0.00,,,0.01,pywws,2013-06-26 12:16:00,
2013-06-26 05:21:00,55.8,53.8,29.86,North,-999,0.0,0.0,93,0.00,,,0.01,pywws,2013-06-26 12:21:00,
2013-06-26 05:26:00,55.8,53.8,29.87,North,-999,0.0,0.0,93,0.00,,,0.01,pywws,2013-06-26 12:26:00,
2013-06-26 05:31:00,55.6,53.6,29.86,North,-999,0.0,0.0,93,0.00,,,0.01,pywws,2013-06-26 12:31:00,
2013-06-26 05:36:00,55.8,53.8,29.87,North,-999,0.0,0.0,93,0.00,,,0.01,pywws,2013-06-26 12:36:00,
2013-06-26 05:41:00,55.8,53.8,29.87,North,-999,0.0,0.0,93,0.00,,,0.01,pywws,2013-06-26 12:41:00,
2013-06-26 05:46:00,55.6,53.6,29.87,North,-999,0.0,0.0,93,0.00,,,0.01,pywws,2013-06-26 12:46:00,
2013-06-26 05:51:00,55.6,53.6,29.86,North,-999,0.0,0.0,93,0.00,,,0.01,pywws,2013-06-26 12:51:00,
2013-06-26 06:01:00,55.4,53.4,29.87,North,-999,0.0,0.0,93,0.00,,,0.01,pywws,2013-06-26 13:01:00,
2013-06-26 06:06:00,55.8,53.8,29.87,North,-999,0.0,0.0,93,0.00,,,0.01,pywws,2013-06-26 13:06:00,
2013-06-26 06:11:00,55.8,53.8,29.87,North,-999,0.0,0.0,93,0.00,,,0.01,pywws,2013-06-26 13:11:00,
2013-06-26 06:16:00,55.9,53.9,29.88,North,-999,0.0,0.0,93,0.00,,,0.01,pywws,2013-06-26 13:16:00,
2013-06-26 06:21:00,55.9,53.9,29.88,North,-999,0.0,0.0,93,0.00,,,0.01,pywws,2013-06-26 13:21:00,
2013-06-26 06:26:00,55.6,53.6,29.88,North,-999,0.0,0.0,93,0.00,,,0.01,pywws,2013-06-26 13:26:00,
2013-06-26 06:31:00,55.8,53.8,29.88,North,-999,0.0,0.0,93,0.00,,,0.01,pywws,2013-06-26 13:31:00,
2013-06-26 06:36:00,55.9,53.9,29.88,North,-999,0.0,0.0,93,0.00,,,0.01,pywws,2013-06-26 13:36:00,
2013-06-26 06:41:00,55.9,53.9,29.88,North,-999,0.0,0.0,93,0.00,,,0.01,pywws,2013-06-26 13:41:00,
2013-06-26 06:46:00,56.3,54.3,29.88,North,-999,0.0,0.0,93,0.00,,,0.01,pywws,2013-06-26 13:46:00,
2013-06-26 06:51:00,56.1,54.1,29.88,North,-999,0.0,0.0,93,0.00,,,0.01,pywws,2013-06-26 13:51:00,
2013-06-26 06:56:00,55.9,53.9,29.88,North,-999,0.0,0.0,93,0.00,,,0.01,pywws,2013-06-26 13:56:00,
2013-06-26 07:01:00,56.5,54.5,29.88,North,-999,0.0,0.0,93,0.00,,,0.01,pywws,2013-06-26 14:01:00,
2013-06-26 07:06:00,56.5,54.5,29.88,North,-999,0.0,0.0,93,0.00,,,0.01,pywws,2013-06-26 14:06:00,
2013-06-26 07:11:00,56.7,54.7,29.88,North,-999,0.0,0.0,93,0.00,,,0.01,pywws,2013-06-26 14:11:00,
2013-06-26 07:16:00,57.2,54.9,29.89,North,-999,0.0,0.0,92,0.00,,,0.01,pywws,2013-06-26 14:16:00,
2013-06-26 07:21:00,57.4,55.1,29.89,North,-999,0.0,0.0,92,0.00,,,0.01,pywws,2013-06-26 14:21:00,
2013-06-26 07:26:00,57.2,54.9,29.89,North,-999,0.0,0.0,92,0.00,,,0.01,pywws,2013-06-26 14:26:00,
2013-06-26 07:31:00,57.2,54.9,29.89,North,-999,0.0,0.0,92,0.00,,,0.01,pywws,2013-06-26 14:31:00,
2013-06-26 07:36:00,57.6,55.3,29.89,North,-999,0.0,0.0,92,0.00,,,0.01,pywws,2013-06-26 14:36:00,
2013-06-26 07:41:00,57.4,55.1,29.89,North,-999,0.0,0.0,92,0.00,,,0.01,pywws,2013-06-26 14:41:00,
2013-06-26 07:46:00,57.4,55.1,29.89,North,-999,0.0,0.0,92,0.00,,,0.01,pywws,2013-06-26 14:46:00,
2013-06-26 07:51:00,57.6,55.3,29.89,North,-999,0.0,0.0,92,0.00,,,0.01,pywws,2013-06-26 14:51:00,
2013-06-26 07:56:00,57.4,54.8,29.90,North,-999,0.0,0.0,91,0.00,,,0.01,pywws,2013-06-26 14:56:00,
2013-06-26 08:01:00,57.0,54.7,29.90,North,-999,0.0,0.0,92,0.01,,,0.02,pywws,2013-06-26 15:01:00,
2013-06-26 08:06:00,57.2,54.6,29.90,North,-999,0.0,0.0,91,0.01,,,0.02,pywws,2013-06-26 15:06:00,
2013-06-26 08:11:00,57.9,55.3,29.90,North,-999,0.0,0.0,91,0.01,,,0.02,pywws,2013-06-26 15:11:00,
2013-06-26 08:16:00,58.1,55.8,29.91,North,-999,0.0,0.0,92,0.01,,,0.02,pywws,2013-06-26 15:16:00,
2013-06-26 08:21:00,58.1,55.8,29.91,North,-999,0.0,0.0,92,0.01,,,0.02,pywws,2013-06-26 15:21:00,
2013-06-26 08:26:00,58.1,55.5,29.91,North,-999,0.0,0.0,91,0.01,,,0.02,pywws,2013-06-26 15:26:00,
2013-06-26 08:31:00,58.3,55.7,29.91,North,-999,0.0,0.0,91,0.01,,,0.02,pywws,2013-06-26 15:31:00,
2013-06-26 08:36:00,57.9,55.3,29.91,North,-999,0.0,0.0,91,0.01,,,0.02,pywws,2013-06-26 15:36:00,
2013-06-26 08:41:00,58.1,55.5,29.91,North,-999,0.0,0.0,91,0.01,,,0.02,pywws,2013-06-26 15:41:00,
2013-06-26 08:46:00,58.1,55.5,29.91,North,-999,0.0,0.0,91,0.01,,,0.02,pywws,2013-06-26 15:46:00,
2013-06-26 08:51:00,58.3,55.7,29.92,North,-999,0.0,0.0,91,0.01,,,0.02,pywws,2013-06-26 15:51:00,
2013-06-26 08:56:00,58.5,55.8,29.91,North,-999,0.0,0.0,91,0.01,,,0.02,pywws,2013-06-26 15:56:00,
2013-06-26 09:01:00,58.6,56.0,29.91,North,-999,0.0,0.0,91,0.00,,,0.02,pywws,2013-06-26 16:01:00,
2013-06-26 09:06:00,58.6,56.0,29.91,North,-999,0.0,0.0,91,0.00,,,0.02,pywws,2013-06-26 16:06:00,
2013-06-26 09:11:00,59.2,56.2,29.91,North,-999,0.0,0.0,90,0.00,,,0.02,pywws,2013-06-26 16:11:00,
2013-06-26 09:16:00,59.4,56.4,29.91,North,-999,0.0,0.0,90,0.00,,,0.02,pywws,2013-06-26 16:16:00,
2013-06-26 09:21:00,59.5,56.6,29.91,North,-999,0.0,0.0,90,0.00,,,0.02,pywws,2013-06-26 16:21:00,
2013-06-26 09:26:00,59.7,56.8,29.92,North,-999,0.0,0.0,90,0.00,,,0.02,pywws,2013-06-26 16:26:00,
2013-06-26 09:31:00,59.9,57.0,29.92,North,-999,0.0,0.0,90,0.00,,,0.02,pywws,2013-06-26 16:31:00,
2013-06-26 09:36:00,59.9,56.6,29.92,North,-999,0.0,0.0,89,0.00,,,0.02,pywws,2013-06-26 16:36:00,
2013-06-26 09:41:00,60.4,57.2,29.92,North,-999,0.0,0.0,89,0.00,,,0.02,pywws,2013-06-26 16:41:00,
2013-06-26 09:46:00,60.4,57.2,29.92,North,-999,0.0,0.0,89,0.00,,,0.02,pywws,2013-06-26 16:46:00,
2013-06-26 09:51:00,60.3,57.0,29.92,North,-999,0.0,0.0,89,0.00,,,0.02,pywws,2013-06-26 16:51:00,
2013-06-26 09:56:00,60.3,56.7,29.92,North,-999,0.0,0.0,88,0.00,,,0.02,pywws,2013-06-26 16:56:00,
2013-06-26 10:01:00,60.4,56.9,29.92,North,-999,0.0,0.0,88,0.00,,,0.02,pywws,2013-06-26 17:01:00,
2013-06-26 10:06:00,60.6,57.0,29.92,North,-999,0.0,0.0,88,0.00,,,0.02,pywws,2013-06-26 17:06:00,
2013-06-26 10:11:00,60.6,57.0,29.92,North,-999,0.0,0.0,88,0.00,,,0.02,pywws,2013-06-26 17:11:00,
2013-06-26 10:16:00,60.8,56.9,29.93,North,-999,0.0,0.0,87,0.00,,,0.02,pywws,2013-06-26 17:16:00,
2013-06-26 10:21:00,61.0,57.1,29.92,North,-999,0.0,0.0,87,0.00,,,0.02,pywws,2013-06-26 17:21:00,
2013-06-26 10:26:00,61.2,56.9,29.92,North,-999,0.0,0.0,86,0.00,,,0.02,pywws,2013-06-26 17:26:00,
2013-06-26 10:31:00,61.3,57.1,29.92,North,-999,0.0,0.0,86,0.00,,,0.02,pywws,2013-06-26 17:31:00,
2013-06-26 10:36:00,62.1,57.8,29.92,North,-999,0.0,0.0,86,0.00,,,0.02,pywws,2013-06-26 17:36:00,
2013-06-26 10:41:00,62.4,58.2,29.92,North,-999,0.0,0.0,86,0.00,,,0.02,pywws,2013-06-26 17:41:00,
2013-06-26 10:46:00,63.0,58.4,29.93,North,-999,0.0,0.0,85,0.00,,,0.02,pywws,2013-06-26 17:46:00,
2013-06-26 10:51:00,62.8,57.9,29.92,North,-999,0.0,0.0,84,0.00,,,0.02,pywws,2013-06-26 17:51:00,
2013-06-26 11:01:00,63.1,58.2,29.92,North,-999,0.0,0.0,84,0.00,,,0.02,pywws,2013-06-26 18:01:00,
2013-06-26 11:06:00,63.3,58.4,29.93,North,-999,0.0,0.0,84,0.00,,,0.02,pywws,2013-06-26 18:06:00,
2013-06-26 11:11:00,63.5,58.2,29.93,North,-999,0.0,0.0,83,0.00,,,0.02,pywws,2013-06-26 18:11:00,
2013-06-26 11:16:00,63.1,57.9,29.93,North,-999,0.0,0.0,83,0.00,,,0.02,pywws,2013-06-26 18:16:00,
2013-06-26 11:21:00,63.3,58.1,29.94,North,-999,0.0,0.0,83,0.00,,,0.02,pywws,2013-06-26 18:21:00,
2013-06-26 11:26:00,63.3,58.1,29.94,North,-999,0.0,0.0,83,0.00,,,0.02,pywws,2013-06-26 18:26:00,
2013-06-26 11:31:00,63.5,58.2,29.94,North,-999,0.0,0.0,83,0.00,,,0.02,pywws,2013-06-26 18:31:00,
2013-06-26 11:36:00,63.3,57.7,29.94,North,-999,0.0,0.0,82,0.00,,,0.02,pywws,2013-06-26 18:36:00,
2013-06-26 11:41:00,63.7,58.1,29.94,North,-999,0.0,0.0,82,0.00,,,0.02,pywws,2013-06-26 18:41:00,
2013-06-26 11:46:00,63.9,58.3,29.93,North,-999,0.0,0.0,82,0.00,,,0.02,pywws,2013-06-26 18:46:00,
2013-06-26 11:51:00,63.9,58.3,29.93,SE,135,0.7,1.6,82,0.00,,,0.02,pywws,2013-06-26 18:51:00,
2013-06-26 12:01:00,63.9,58.3,29.94,North,-999,0.0,0.0,82,0.00,,,0.02,pywws,2013-06-26 19:01:00,
2013-06-26 12:06:00,63.1,57.6,29.94,North,-999,0.0,0.0,82,0.00,,,0.02,pywws,2013-06-26 19:06:00,
2013-06-26 12:11:00,64.0,58.8,29.94,North,-999,0.0,0.0,83,0.00,,,0.02,pywws,2013-06-26 19:11:00,
2013-06-26 12:16:00,64.4,58.8,29.94,North,-999,0.0,0.0,82,0.00,,,0.02,pywws,2013-06-26 19:16:00,
2013-06-26 12:21:00,64.8,59.1,29.94,North,-999,0.0,0.0,82,0.00,,,0.02,pywws,2013-06-26 19:21:00,
2013-06-26 12:26:00,64.2,58.6,29.94,North,-999,0.0,0.0,82,0.00,,,0.02,pywws,2013-06-26 19:26:00,
2013-06-26 12:31:00,64.6,59.0,29.94,North,-999,0.0,0.0,82,0.00,,,0.02,pywws,2013-06-26 19:31:00,
2013-06-26 12:36:00,67.8,61.8,29.94,North,-999,0.0,0.0,81,0.00,,,0.02,pywws,2013-06-26 19:36:00,
2013-06-26 12:41:00,68.9,61.0,29.94,North,-999,0.0,0.0,76,0.00,,,0.02,pywws,2013-06-26 19:41:00,
2013-06-26 12:46:00,68.4,60.9,29.94,North,-999,0.0,0.0,77,0.00,,,0.02,pywws,2013-06-26 19:46:00,
2013-06-26 12:51:00,69.4,59.6,29.95,South,180,0.7,1.6,71,0.00,,,0.02,pywws,2013-06-26 19:51:00,
2013-06-26 12:56:00,68.5,60.3,29.95,North,-999,0.0,0.0,75,0.00,,,0.02,pywws,2013-06-26 19:56:00,
2013-06-26 13:01:00,70.3,60.9,29.94,SE,135,0.7,1.6,72,0.00,,,0.02,pywws,2013-06-26 20:01:00,
2013-06-26 13:06:00,70.3,60.9,29.95,SE,135,0.7,1.6,72,0.00,,,0.02,pywws,2013-06-26 20:06:00,
2013-06-26 13:11:00,69.3,60.2,29.95,NE,45,0.7,2.2,73,0.00,,,0.02,pywws,2013-06-26 20:11:00,
2013-06-26 13:16:00,68.2,59.6,29.95,NE,45,2.2,2.2,74,0.00,,,0.02,pywws,2013-06-26 20:16:00,
2013-06-26 13:21:00,68.5,59.5,29.95,North,-999,0.0,0.0,73,0.00,,,0.02,pywws,2013-06-26 20:21:00,
2013-06-26 13:26:00,68.7,60.1,29.96,NE,45,0.7,3.8,74,0.00,,,0.02,pywws,2013-06-26 20:26:00,
2013-06-26 13:31:00,69.6,61.3,29.95,NE,45,0.7,2.2,75,0.00,,,0.02,pywws,2013-06-26 20:31:00,
2013-06-26 13:36:00,69.4,60.8,29.95,North,-999,0.0,0.0,74,0.00,,,0.02,pywws,2013-06-26 20:36:00,
2013-06-26 13:41:00,69.1,60.1,29.96,NE,45,0.7,1.6,73,0.00,,,0.02,pywws,2013-06-26 20:41:00,
2013-06-26 13:46:00,70.9,61.4,29.96,North,-999,0.0,0.0,72,0.00,,,0.02,pywws,2013-06-26 20:46:00,
2013-06-26 13:51:00,69.3,60.2,29.96,North,-999,0.0,0.0,73,0.00,,,0.02,pywws,2013-06-26 20:51:00,
2013-06-26 14:01:00,67.3,57.5,29.96,NE,45,0.7,2.2,71,0.00,,,0.02,pywws,2013-06-26 21:01:00,
2013-06-26 14:06:00,66.2,57.7,29.97,North,-999,0.0,0.0,74,0.00,,,0.02,pywws,2013-06-26 21:06:00,
2013-06-26 14:11:00,65.7,57.9,29.96,North,-999,0.0,0.0,76,0.00,,,0.02,pywws,2013-06-26 21:11:00,
2013-06-26 14:16:00,65.3,57.5,29.97,North,-999,0.0,0.0,76,0.00,,,0.02,pywws,2013-06-26 21:16:00,
2013-06-26 14:21:00,64.9,57.2,29.98,SE,135,0.7,2.2,76,0.05,,,0.07,pywws,2013-06-26 21:21:00,
2013-06-26 14:26:00,62.2,56.3,29.98,SE,135,1.6,2.2,81,0.12,,,0.14,pywws,2013-06-26 21:26:00,
2013-06-26 14:31:00,62.4,57.2,29.98,North,-999,0.0,0.0,83,0.13,,,0.15,pywws,2013-06-26 21:31:00,
2013-06-26 14:36:00,62.4,57.5,29.98,East,90,0.7,1.6,84,0.13,,,0.15,pywws,2013-06-26 21:36:00,
2013-06-26 14:41:00,64.2,59.3,29.98,North,-999,0.0,0.0,84,0.13,,,0.15,pywws,2013-06-26 21:41:00,
2013-06-26 14:46:00,64.2,59.6,29.98,North,-999,0.0,0.0,85,0.13,,,0.15,pywws,2013-06-26 21:46:00,
2013-06-26 14:51:00,65.1,60.8,29.98,East,90,1.6,2.2,86,0.13,,,0.15,pywws,2013-06-26 21:51:00,
2013-06-26 15:01:00,65.8,61.5,29.98,North,-999,0.0,0.0,86,0.13,,,0.15,pywws,2013-06-26 22:01:00,
2013-06-26 15:06:00,66.0,61.7,29.97,North,-999,0.0,0.0,86,0.13,,,0.15,pywws,2013-06-26 22:06:00,
2013-06-26 15:11:00,65.3,60.7,29.97,East,90,0.7,1.6,85,0.13,,,0.15,pywws,2013-06-26 22:11:00,
2013-06-26 15:16:00,64.6,60.0,29.97,East,90,2.2,3.1,85,0.13,,,0.15,pywws,2013-06-26 22:16:00,
2013-06-26 15:21:00,63.9,58.9,29.98,East,90,0.7,1.6,84,0.08,,,0.15,pywws,2013-06-26 22:21:00,
2013-06-26 15:26:00,63.3,58.1,29.97,East,90,2.2,3.1,83,0.01,,,0.15,pywws,2013-06-26 22:26:00,
2013-06-26 15:31:00,63.7,58.8,29.98,East,90,2.2,3.1,84,0.00,,,0.15,pywws,2013-06-26 22:31:00,
2013-06-26 15:36:00,63.5,58.6,29.98,East,90,2.2,3.1,84,0.00,,,0.15,pywws,2013-06-26 22:36:00,
2013-06-26 15:41:00,63.3,58.4,29.98,East,90,1.6,2.2,84,0.00,,,0.15,pywws,2013-06-26 22:41:00,
2013-06-26 15:46:00,62.6,57.7,29.98,East,90,2.2,3.1,84,0.00,,,0.15,pywws,2013-06-26 22:46:00,
2013-06-26 15:51:00,62.1,57.5,29.98,East,90,1.6,2.2,85,0.00,,,0.15,pywws,2013-06-26 22:51:00,
2013-06-26 16:01:00,62.2,58.0,30.01,South,180,3.8,5.4,86,0.01,,,0.17,pywws,2013-06-26 23:01:00,
2013-06-26 16:06:00,61.3,57.1,30.00,North,-999,0.0,2.2,86,0.02,,,0.18,pywws,2013-06-26 23:06:00,
2013-06-26 16:11:00,61.3,57.1,30.01,North,-999,0.0,0.0,86,0.02,,,0.18,pywws,2013-06-26 23:11:00,
2013-06-26 16:16:00,61.2,56.9,30.01,North,-999,0.0,0.0,86,0.02,,,0.18,pywws,2013-06-26 23:16:00,
2013-06-26 16:21:00,61.3,57.1,30.01,East,90,0.7,1.6,86,0.02,,,0.18,pywws,2013-06-26 23:21:00,
2013-06-26 16:26:00,61.9,57.6,30.01,North,-999,0.0,0.0,86,0.02,,,0.18,pywws,2013-06-26 23:26:00,
2013-06-26 16:31:00,63.3,59.1,30.01,North,-999,0.0,0.0,86,0.02,,,0.18,pywws,2013-06-26 23:31:00,
2013-06-26 16:36:00,63.7,59.4,30.01,North,-999,0.0,0.0,86,0.02,,,0.18,pywws,2013-06-26 23:36:00,
2013-06-26 16:41:00,64.4,60.1,30.01,North,-999,0.0,0.0,86,0.02,,,0.18,pywws,2013-06-26 23:41:00,
2013-06-26 16:46:00,63.7,58.8,30.01,North,-999,0.0,0.0,84,0.02,,,0.18,pywws,2013-06-26 23:46:00,
2013-06-26 16:51:00,63.9,58.9,30.01,North,-999,0.0,0.0,84,0.02,,,0.18,pywws,2013-06-26 23:51:00,
2013-06-26 17:01:00,63.7,58.8,30.02,North,-999,0.0,1.6,84,0.01,,,0.18,pywws,2013-06-27 00:01:00,
2013-06-26 17:06:00,63.5,58.6,30.02,North,-999,0.0,0.0,84,0.00,,,0.18,pywws,2013-06-27 00:06:00,
2013-06-26 17:11:00,62.6,57.4,30.03,East,90,1.6,2.2,83,0.00,,,0.18,pywws,2013-06-27 00:11:00,
2013-06-26 17:16:00,62.2,57.3,30.02,East,90,1.6,2.2,84,0.00,,,0.18,pywws,2013-06-27 00:16:00,
2013-06-26 17:21:00,62.1,57.5,30.03,East,90,1.6,2.2,85,0.00,,,0.18,pywws,2013-06-27 00:21:00,
2013-06-26 17:26:00,62.2,57.7,30.02,East,90,1.6,2.2,85,0.00,,,0.18,pywws,2013-06-27 00:26:00,
2013-06-26 17:31:00,62.8,58.2,30.02,North,-999,0.0,0.0,85,0.00,,,0.18,pywws,2013-06-27 00:31:00,
2013-06-26 17:36:00,63.1,58.6,30.03,North,-999,0.0,0.0,85,0.00,,,0.18,pywws,2013-06-27 00:36:00,
2013-06-26 17:41:00,63.3,58.7,30.02,North,-999,0.0,0.0,85,0.00,,,0.18,pywws,2013-06-27 00:41:00,
2013-06-26 17:46:00,63.1,58.6,30.02,North,-999,0.0,0.0,85,0.00,,,0.18,pywws,2013-06-27 00:46:00,
2013-06-26 17:51:00,63.0,58.0,30.02,North,-999,0.0,0.0,84,0.00,,,0.18,pywws,2013-06-27 00:51:00,
2013-06-26 18:01:00,64.0,59.1,30.02,North,-999,0.0,0.0,84,0.00,,,0.18,pywws,2013-06-27 01:01:00,
2013-06-26 18:06:00,63.9,58.9,30.02,North,-999,0.0,0.0,84,0.00,,,0.18,pywws,2013-06-27 01:06:00,
2013-06-26 18:11:00,63.7,58.4,30.03,North,-999,0.0,0.0,83,0.00,,,0.18,pywws,2013-06-27 01:11:00,
2013-06-26 18:16:00,63.9,58.6,30.02,North,-999,0.0,0.0,83,0.00,,,0.18,pywws,2013-06-27 01:16:00,
2013-06-26 18:21:00,63.9,58.6,30.03,North,-999,0.0,0.0,83,0.00,,,0.18,pywws,2013-06-27 01:21:00,
2013-06-26 18:26:00,63.9,58.6,30.03,North,-999,0.0,0.0,83,0.00,,,0.18,pywws,2013-06-27 01:26:00,
2013-06-26 18:31:00,63.7,58.4,30.03,North,-999,0.0,0.0,83,0.00,,,0.18,pywws,2013-06-27 01:31:00,
2013-06-26 18:36:00,63.3,58.1,30.03,North,-999,0.0,0.0,83,0.00,,,0.18,pywws,2013-06-27 01:36:00,
2013-06-26 18:41:00,63.0,57.7,30.03,North,-999,0.0,0.0,83,0.00,,,0.18,pywws,2013-06-27 01:41:00,
2013-06-26 18:46:00,62.8,57.5,30.03,North,-999,0.0,0.0,83,0.00,,,0.18,pywws,2013-06-27 01:46:00,
2013-06-26 18:51:00,62.8,57.5,30.03,North,-999,0.0,0.0,83,0.00,,,0.18,pywws,2013-06-27 01:51:00,
2013-06-26 19:01:00,62.6,57.4,30.03,North,-999,0.0,0.0,83,0.00,,,0.18,pywws,2013-06-27 02:01:00,
2013-06-26 21:55:00,60.1,56.5,30.06,North,-999,0.0,0.0,88,0.00,,,0.18,pywws,2013-06-27 04:55:00,
2013-06-26 22:00:00,59.9,56.3,30.06,North,-999,0.0,0.0,88,0.00,,,0.18,pywws,2013-06-27 05:00:00,
2013-06-26 22:05:00,59.9,56.3,30.07,North,-999,0.0,0.0,88,0.00,,,0.18,pywws,2013-06-27 05:05:00,
2013-06-26 22:10:00,59.9,56.3,30.07,North,-999,0.0,0.0,88,0.00,,,0.18,pywws,2013-06-27 05:10:00,
2013-06-26 22:15:00,59.7,56.2,30.07,North,-999,0.0,0.0,88,0.00,,,0.18,pywws,2013-06-27 05:15:00,
2013-06-26 22:20:00,59.5,56.0,30.06,North,-999,0.0,0.0,88,0.00,,,0.18,pywws,2013-06-27 05:20:00,
2013-06-26 22:25:00,59.4,55.8,30.06,North,-999,0.0,0.0,88,0.00,,,0.18,pywws,2013-06-27 05:25:00,
2013-06-26 22:30:00,59.4,55.8,30.06,North,-999,0.0,0.0,88,0.00,,,0.18,pywws,2013-06-27 05:30:00,
2013-06-26 22:35:00,59.4,55.8,30.06,North,-999,0.0,0.0,88,0.00,,,0.18,pywws,2013-06-27 05:35:00,
2013-06-26 22:40:00,59.2,55.6,30.06,North,-999,0.0,0.0,88,0.00,,,0.18,pywws,2013-06-27 05:40:00,
2013-06-26 22:45:00,59.0,55.8,30.07,North,-999,0.0,0.0,89,0.00,,,0.18,pywws,2013-06-27 05:45:00,
2013-06-26 22:50:00,59.0,55.8,30.07,North,-999,0.0,0.0,89,0.00,,,0.18,pywws,2013-06-27 05:50:00,
2013-06-26 22:55:00,59.0,55.8,30.07,North,-999,0.0,0.0,89,0.00,,,0.18,pywws,2013-06-27 05:55:00,
2013-06-26 23:00:00,59.2,55.9,30.07,North,-999,0.0,0.0,89,0.00,,,0.18,pywws,2013-06-27 06:00:00,
2013-06-26 23:05:00,59.2,55.9,30.07,North,-999,0.0,0.0,89,0.00,,,0.18,pywws,2013-06-27 06:05:00,
2013-06-26 23:10:00,59.0,55.8,30.07,North,-999,0.0,0.0,89,0.00,,,0.18,pywws,2013-06-27 06:10:00,
2013-06-26 23:15:00,58.8,55.9,30.07,North,-999,0.0,0.0,90,0.00,,,0.18,pywws,2013-06-27 06:15:00,
2013-06-26 23:20:00,58.8,55.9,30.07,North,-999,0.0,0.0,90,0.00,,,0.18,pywws,2013-06-27 06:20:00,
2013-06-26 23:25:00,58.8,55.9,30.07,North,-999,0.0,0.0,90,0.00,,,0.18,pywws,2013-06-27 06:25:00,
2013-06-26 23:30:00,58.6,55.7,30.07,North,-999,0.0,0.0,90,0.00,,,0.18,pywws,2013-06-27 06:30:00,
2013-06-26 23:35:00,58.6,55.7,30.07,North,-999,0.0,0.0,90,0.00,,,0.18,pywws,2013-06-27 06:35:00,
2013-06-26 23:40:00,58.6,55.7,30.07,North,-999,0.0,0.0,90,0.00,,,0.18,pywws,2013-06-27 06:40:00,
2013-06-26 23:45:00,58.6,55.7,30.07,North,-999,0.0,0.0,90,0.00,,,0.18,pywws,2013-06-27 06:45:00,
2013-06-26 23:50:00,58.8,55.9,30.07,North,-999,0.0,0.0,90,0.00,,,0.18,pywws,2013-06-27 06:50:00,
2013-06-26 23:55:00,58.8,56.2,30.07,North,-999,0.0,0.0,91,0.00,,,0.18,pywws,2013-06-27 06:55:00,